createdAt,value
2023-06-08T00:01:36.605Z,17.03
2023-06-08T00:04:06.800Z,16.99
2023-06-08T00:06:35.568Z,16.89
2023-06-08T00:09:02.686Z,16.81
2023-06-08T00:11:29.818Z,16.75
2023-06-08T00:13:56.822Z,16.69
2023-06-08T00:16:23.860Z,16.68
2023-06-08T00:18:51.805Z,16.68
2023-06-08T00:21:18.802Z,16.61
2023-06-08T00:23:47.555Z,16.39
2023-06-08T00:26:14.484Z,16.07
2023-06-08T00:28:41.690Z,16.07
2023-06-08T00:31:08.789Z,16.08
2023-06-08T00:33:35.987Z,16.12
2023-06-08T00:36:05.669Z,16.12
2023-06-08T00:38:35.382Z,16.07
2023-06-08T00:41:06.748Z,16.03
2023-06-08T00:43:34.493Z,15.93
2023-06-08T00:46:03.418Z,15.97
2023-06-08T00:48:31.181Z,15.85
2023-06-08T00:50:59.828Z,15.84
2023-06-08T00:53:27.107Z,15.75
2023-06-08T00:55:54.700Z,15.73
2023-06-08T00:58:24.268Z,15.72
2023-06-08T01:00:51.629Z,15.74
2023-06-08T01:03:20.928Z,15.78
2023-06-08T01:05:48.030Z,15.83
2023-06-08T01:08:20.660Z,15.99
2023-06-08T01:10:51.686Z,16.10
2023-06-08T01:13:26.396Z,16.24
2023-06-08T01:15:56.716Z,16.25
2023-06-08T01:18:25.055Z,16.27
2023-06-08T01:21:08.468Z,16.20
2023-06-08T01:23:46.980Z,16.01
2023-06-08T01:26:17.320Z,15.89
2023-06-08T01:28:48.870Z,15.76
2023-06-08T01:31:15.885Z,15.73
2023-06-08T01:33:43.322Z,15.65
2023-06-08T01:36:16.439Z,15.55
2023-06-08T01:38:49.908Z,15.46
2023-06-08T01:41:22.421Z,15.42
2023-06-08T01:43:51.354Z,15.34
2023-06-08T01:46:20.082Z,15.38
2023-06-08T01:48:48.546Z,15.50
2023-06-08T01:51:17.307Z,15.50
2023-06-08T01:53:44.891Z,15.46
2023-06-08T01:56:12.742Z,15.49
2023-06-08T01:58:41.125Z,15.52
2023-06-08T02:01:08.217Z,15.62
2023-06-08T02:03:35.284Z,15.69
2023-06-08T02:06:02.331Z,15.66
2023-06-08T02:08:32.713Z,15.49
2023-06-08T02:10:59.668Z,15.26
2023-06-08T02:13:26.802Z,15.14
2023-06-08T02:15:55.890Z,15.05
2023-06-08T02:18:22.870Z,14.82
2023-06-08T02:20:50.860Z,14.66
2023-06-08T02:23:17.821Z,14.51
2023-06-08T02:25:44.861Z,14.54
2023-06-08T02:28:11.883Z,14.56
2023-06-08T02:30:38.801Z,14.56
2023-06-08T02:33:07.815Z,14.45
2023-06-08T02:35:34.943Z,14.61
2023-06-08T02:38:01.874Z,14.58
2023-06-08T02:40:29.678Z,14.57
2023-06-08T02:42:57.754Z,14.49
2023-06-08T02:45:26.355Z,14.47
2023-06-08T02:47:56.079Z,14.59
2023-06-08T02:50:24.640Z,14.56
2023-06-08T02:52:51.671Z,14.58
2023-06-08T02:55:18.718Z,14.60
2023-06-08T02:57:50.207Z,14.64
2023-06-08T03:00:18.516Z,14.49
2023-06-08T03:02:55.741Z,14.52
2023-06-08T03:05:25.388Z,14.47
2023-06-08T03:07:54.238Z,14.43
2023-06-08T03:10:21.624Z,14.38
2023-06-08T03:12:48.660Z,14.39
2023-06-08T03:15:24.224Z,14.36
2023-06-08T03:17:58.407Z,14.33
2023-06-08T03:20:27.134Z,14.43
2023-06-08T03:23:10.383Z,14.39
2023-06-08T03:25:40.135Z,14.37
2023-06-08T03:28:07.348Z,14.51
2023-06-08T03:30:34.347Z,14.58
2023-06-08T03:33:07.044Z,14.63
2023-06-08T03:35:46.984Z,14.51
2023-06-08T03:38:22.780Z,14.32
2023-06-08T03:40:51.693Z,14.35
2023-06-08T03:43:20.819Z,14.58
2023-06-08T03:45:49.017Z,14.76
2023-06-08T03:48:16.676Z,14.81
2023-06-08T03:50:46.344Z,15.00
2023-06-08T03:53:15.924Z,15.16
2023-06-08T03:55:42.931Z,15.34
2023-06-08T03:58:10.172Z,15.44
2023-06-08T04:00:37.260Z,15.57
2023-06-08T04:03:04.674Z,15.64
2023-06-08T04:05:32.072Z,15.69
2023-06-08T04:08:02.413Z,15.74
2023-06-08T04:10:32.132Z,15.85
2023-06-08T04:12:59.877Z,15.89
2023-06-08T04:15:27.044Z,15.87
2023-06-08T04:17:56.572Z,15.92
2023-06-08T04:20:24.541Z,15.95
2023-06-08T04:22:52.080Z,16.08
2023-06-08T04:25:26.197Z,16.16
2023-06-08T04:27:56.271Z,16.15
2023-06-08T04:30:23.596Z,16.24
2023-06-08T04:32:51.089Z,16.32
2023-06-08T04:35:19.148Z,16.31
2023-06-08T04:37:50.832Z,16.37
2023-06-08T04:40:18.220Z,16.43
2023-06-08T04:42:45.663Z,16.46
2023-06-08T04:45:14.262Z,16.48
2023-06-08T04:47:45.035Z,16.61
2023-06-08T04:50:12.624Z,16.67
2023-06-08T04:52:42.396Z,16.75
2023-06-08T04:55:14.237Z,16.88
2023-06-08T04:57:41.935Z,16.98
2023-06-08T05:00:10.936Z,17.09
2023-06-08T05:02:40.053Z,17.16
2023-06-08T05:05:08.567Z,17.24
2023-06-08T05:07:35.587Z,17.31
2023-06-08T05:10:03.430Z,17.40
2023-06-08T05:12:30.562Z,17.48
2023-06-08T05:14:57.653Z,17.59
2023-06-08T05:17:24.741Z,17.67
2023-06-08T05:19:53.170Z,17.77
2023-06-08T05:22:20.213Z,17.82
2023-06-08T05:24:47.836Z,17.90
2023-06-08T05:27:16.136Z,17.99
2023-06-08T05:29:43.108Z,18.09
2023-06-08T05:32:11.383Z,18.17
2023-06-08T05:34:38.379Z,18.19
2023-06-08T05:37:06.892Z,18.19
2023-06-08T05:39:33.853Z,18.30
2023-06-08T05:42:00.951Z,18.33
2023-06-08T05:44:29.012Z,18.46
2023-06-08T05:46:55.711Z,18.60
2023-06-08T05:49:22.668Z,18.65
2023-06-08T05:51:49.665Z,18.73
2023-06-08T05:54:18.099Z,18.81
2023-06-08T05:56:45.157Z,18.91
2023-06-08T05:59:12.181Z,18.98
2023-06-08T06:01:39.183Z,19.09
2023-06-08T06:04:07.813Z,19.18
2023-06-08T06:06:40.472Z,19.26
2023-06-08T06:09:07.538Z,19.32
2023-06-08T06:11:36.079Z,19.31
2023-06-08T06:14:03.167Z,19.32
2023-06-08T06:16:30.515Z,19.22
2023-06-08T06:18:58.783Z,19.31
2023-06-08T06:21:25.740Z,19.41
2023-06-08T06:23:52.680Z,19.51
2023-06-08T06:26:19.642Z,19.57
2023-06-08T06:28:48.075Z,19.69
2023-06-08T06:31:15.021Z,19.60
2023-06-08T06:33:42.023Z,19.78
2023-06-08T06:36:08.983Z,19.77
2023-06-08T06:38:35.923Z,19.93
2023-06-08T06:41:04.627Z,20.12
2023-06-08T06:43:31.395Z,20.17
2023-06-08T06:46:05.644Z,20.17
2023-06-08T06:48:32.656Z,20.24
2023-06-08T06:50:59.667Z,20.39
2023-06-08T06:53:26.623Z,20.55
2023-06-08T06:55:53.543Z,20.60
2023-06-08T06:58:21.326Z,20.77
2023-06-08T07:00:48.360Z,20.89
2023-06-08T07:03:17.829Z,20.99
2023-06-08T07:05:46.302Z,21.04
2023-06-08T07:08:13.422Z,21.16
2023-06-08T07:10:40.493Z,21.41
2023-06-08T07:13:07.558Z,21.65
2023-06-08T07:15:34.980Z,21.80
2023-06-08T07:18:02.026Z,21.90
2023-06-08T07:20:31.495Z,21.99
2023-06-08T07:23:03.823Z,22.19
2023-06-08T07:26:27.470Z,22.35
2023-06-08T07:28:32.966Z,22.39
2023-06-08T07:30:59.956Z,22.33
2023-06-08T07:33:27.418Z,22.45
2023-06-08T07:35:56.003Z,22.58
2023-06-08T07:38:22.925Z,22.78
2023-06-08T07:40:50.098Z,22.84
2023-06-08T07:43:17.153Z,22.97
2023-06-08T07:45:44.165Z,23.14
2023-06-08T07:48:11.133Z,23.26
2023-06-08T07:50:39.085Z,23.37
2023-06-08T07:53:08.282Z,23.51
2023-06-08T07:55:35.235Z,23.69
2023-06-08T07:58:02.666Z,23.66
2023-06-08T08:00:32.495Z,23.81
2023-06-08T08:02:59.834Z,23.89
2023-06-08T08:05:26.957Z,24.09
2023-06-08T08:07:53.852Z,24.16
2023-06-08T08:10:23.764Z,24.30
2023-06-08T08:12:52.619Z,24.50
2023-06-08T08:15:19.649Z,24.72
2023-06-08T08:17:46.658Z,24.79
2023-06-08T08:20:14.427Z,24.83
2023-06-08T08:22:41.198Z,24.87
2023-06-08T08:25:09.355Z,24.94
2023-06-08T08:27:38.019Z,24.88
2023-06-08T08:30:06.321Z,25.06
2023-06-08T08:32:33.633Z,25.23
2023-06-08T08:35:00.768Z,25.40
2023-06-08T08:37:27.758Z,25.59
2023-06-08T08:39:54.790Z,25.68
2023-06-08T08:42:24.307Z,25.45
2023-06-08T08:44:55.129Z,25.56
2023-06-08T08:47:24.254Z,25.79
2023-06-08T08:49:56.743Z,25.72
2023-06-08T08:52:24.372Z,25.75
2023-06-08T08:54:56.749Z,25.86
2023-06-08T08:57:23.806Z,26.04
2023-06-08T08:59:50.842Z,26.03
2023-06-08T09:02:19.413Z,25.95
2023-06-08T09:04:46.590Z,25.97
2023-06-08T09:07:19.153Z,26.36
2023-06-08T09:10:13.660Z,26.65
2023-06-08T09:12:40.984Z,26.87
2023-06-08T09:15:09.706Z,26.74
2023-06-08T09:17:41.630Z,26.78
2023-06-08T09:20:10.061Z,26.68
2023-06-08T09:22:37.912Z,26.85
2023-06-08T09:25:05.848Z,27.19
2023-06-08T09:27:33.521Z,27.39
2023-06-08T09:30:03.287Z,27.56
2023-06-08T09:32:34.289Z,27.71
2023-06-08T09:35:04.378Z,27.94
2023-06-08T09:37:34.200Z,27.84
2023-06-08T09:40:02.462Z,27.88
2023-06-08T09:42:42.967Z,28.19
2023-06-08T09:45:11.994Z,28.46
2023-06-08T09:47:39.014Z,28.45
2023-06-08T09:50:09.801Z,28.57
2023-06-08T09:52:37.675Z,28.62
2023-06-08T09:55:06.227Z,28.76
2023-06-08T09:57:35.069Z,28.77
2023-06-08T10:00:15.816Z,28.87
2023-06-08T10:02:49.396Z,28.62
2023-06-08T10:05:19.180Z,28.47
2023-06-08T10:07:48.704Z,28.61
2023-06-08T10:10:19.356Z,28.79
2023-06-08T10:12:46.581Z,28.93
2023-06-08T10:15:13.683Z,28.91
2023-06-08T10:17:40.739Z,28.99
2023-06-08T10:20:08.932Z,28.78
2023-06-08T10:22:39.003Z,28.50
2023-06-08T10:25:09.481Z,28.64
2023-06-08T10:27:37.455Z,28.83
2023-06-08T10:30:06.985Z,28.96
2023-06-08T10:32:35.981Z,29.09
2023-06-08T10:35:06.101Z,29.28
2023-06-08T10:37:37.648Z,29.33
2023-06-08T10:40:09.469Z,29.37
2023-06-08T10:42:36.536Z,29.41
2023-06-08T10:45:05.648Z,28.62
2023-06-08T10:47:38.369Z,28.69
2023-06-08T10:50:07.678Z,28.98
2023-06-08T10:52:45.609Z,29.21
2023-06-08T10:55:14.493Z,29.23
2023-06-08T10:57:43.998Z,29.43
2023-06-08T11:00:44.785Z,29.63
2023-06-08T11:03:13.720Z,29.89
2023-06-08T11:05:42.767Z,29.94
2023-06-08T11:08:11.611Z,29.55
2023-06-08T11:10:42.931Z,29.65
2023-06-08T11:13:10.881Z,29.74
2023-06-08T11:15:39.039Z,29.87
2023-06-08T11:18:08.569Z,29.45
2023-06-08T11:20:38.293Z,29.59
2023-06-08T11:23:07.666Z,29.98
2023-06-08T11:25:36.370Z,30.50
2023-06-08T11:28:04.030Z,30.85
2023-06-08T11:30:41.112Z,30.89
2023-06-08T11:33:09.137Z,30.76
2023-06-08T11:35:36.550Z,30.94
2023-06-08T11:38:04.229Z,31.02
2023-06-08T11:40:32.007Z,31.25
2023-06-08T11:43:02.079Z,30.60
2023-06-08T11:45:29.571Z,30.13
2023-06-08T11:48:14.706Z,29.78
2023-06-08T11:50:48.809Z,30.24
2023-06-08T11:53:17.754Z,30.44
2023-06-08T11:55:47.409Z,30.39
2023-06-08T11:58:16.041Z,30.54
2023-06-08T12:00:43.375Z,30.73
2023-06-08T12:03:11.202Z,30.95
2023-06-08T12:05:38.720Z,31.18
2023-06-08T12:08:12.640Z,31.35
2023-06-08T12:10:41.252Z,31.49
2023-06-08T12:13:09.634Z,31.69
2023-06-08T12:15:39.234Z,32.02
2023-06-08T12:18:10.843Z,32.32
2023-06-08T12:20:38.175Z,32.38
2023-06-08T12:23:05.880Z,32.23
2023-06-08T12:25:33.036Z,31.42
2023-06-08T12:28:00.044Z,31.59
2023-06-08T12:30:27.559Z,31.08
2023-06-08T12:32:59.579Z,31.37
2023-06-08T12:35:26.636Z,31.89
2023-06-08T12:37:53.706Z,32.01
2023-06-08T12:40:21.032Z,31.68
2023-06-08T12:42:51.151Z,31.55
2023-06-08T12:45:19.238Z,31.19
2023-06-08T12:47:46.543Z,31.25
2023-06-08T12:50:18.216Z,31.40
2023-06-08T12:52:46.077Z,31.34
2023-06-08T12:55:13.116Z,30.91
2023-06-08T12:57:40.228Z,31.42
2023-06-08T13:00:09.368Z,31.87
2023-06-08T13:02:36.634Z,31.86
2023-06-08T13:05:03.946Z,31.87
2023-06-08T13:07:32.653Z,31.59
2023-06-08T13:10:00.061Z,31.24
2023-06-08T13:12:29.422Z,30.86
2023-06-08T13:14:56.450Z,30.63
2023-06-08T13:17:25.401Z,30.32
2023-06-08T13:19:53.993Z,30.45
2023-06-08T13:22:22.525Z,30.50
2023-06-08T13:24:51.034Z,30.68
2023-06-08T13:27:18.101Z,31.11
2023-06-08T13:29:52.077Z,31.33
2023-06-08T13:32:21.751Z,31.29
2023-06-08T13:34:50.442Z,31.36
2023-06-08T13:37:17.427Z,31.71
2023-06-08T13:39:44.481Z,31.60
2023-06-08T13:42:12.975Z,31.20
2023-06-08T13:44:42.105Z,30.93
2023-06-08T13:47:09.125Z,30.57
2023-06-08T13:49:36.142Z,30.27
2023-06-08T13:52:03.175Z,29.77
2023-06-08T13:54:30.103Z,29.37
2023-06-08T13:56:57.085Z,29.10
2023-06-08T13:59:25.641Z,28.78
2023-06-08T14:01:54.495Z,28.66
2023-06-08T14:04:21.656Z,28.42
2023-06-08T14:06:48.877Z,28.17
2023-06-08T14:09:15.934Z,28.04
2023-06-08T14:11:43.059Z,28.01
2023-06-08T14:14:10.020Z,28.02
2023-06-08T14:16:38.461Z,27.99
2023-06-08T14:19:05.619Z,27.83
2023-06-08T14:21:32.529Z,27.76
2023-06-08T14:24:01.797Z,27.70
2023-06-08T14:26:29.083Z,27.60
2023-06-08T14:28:56.515Z,27.51
2023-06-08T14:31:23.598Z,27.41
2023-06-08T14:33:52.295Z,27.09
2023-06-08T14:36:19.169Z,26.89
2023-06-08T14:38:47.109Z,26.61
2023-06-08T14:41:14.554Z,26.26
2023-06-08T14:43:41.647Z,25.86
2023-06-08T14:46:12.258Z,25.34
2023-06-08T14:48:39.311Z,24.92
2023-06-08T14:51:07.695Z,24.62
2023-06-08T14:53:34.679Z,24.25
2023-06-08T14:56:01.685Z,23.92
2023-06-08T14:58:28.695Z,23.60
2023-06-08T15:01:01.180Z,23.50
2023-06-08T15:03:28.301Z,23.30
2023-06-08T15:05:55.266Z,23.04
2023-06-08T15:08:25.904Z,22.76
2023-06-08T15:10:52.921Z,22.44
2023-06-08T15:13:19.886Z,22.22
2023-06-08T15:15:47.801Z,22.11
2023-06-08T15:18:14.814Z,21.86
2023-06-08T15:20:41.880Z,21.56
2023-06-08T15:23:10.436Z,21.39
2023-06-08T15:25:39.018Z,21.29
2023-06-08T15:28:08.694Z,21.13
2023-06-08T15:30:35.714Z,21.10
2023-06-08T15:33:02.968Z,20.96
2023-06-08T15:35:30.023Z,21.01
2023-06-08T15:37:57.058Z,20.97
2023-06-08T15:40:24.033Z,20.88
2023-06-08T15:42:52.332Z,20.81
2023-06-08T15:45:19.287Z,20.73
2023-06-08T15:47:47.916Z,20.64
2023-06-08T15:50:16.311Z,20.57
2023-06-08T15:52:43.196Z,20.61
2023-06-08T15:55:10.315Z,20.61
2023-06-08T15:57:37.226Z,20.67
2023-06-08T16:00:09.034Z,20.71
2023-06-08T16:02:39.144Z,20.64
2023-06-08T16:05:07.433Z,20.65
2023-06-08T16:07:34.409Z,20.60
2023-06-08T16:10:03.300Z,20.53
2023-06-08T16:12:30.533Z,20.53
2023-06-08T16:14:58.210Z,20.57
2023-06-08T16:17:26.616Z,20.59
2023-06-08T16:19:53.634Z,20.57
2023-06-08T16:22:20.592Z,20.49
2023-06-08T16:24:47.570Z,20.54
2023-06-08T16:27:16.258Z,20.57
2023-06-08T16:29:44.838Z,20.55
2023-06-08T16:32:14.150Z,20.49
2023-06-08T16:34:42.746Z,20.53
2023-06-08T16:37:09.754Z,20.52
2023-06-08T16:39:37.007Z,20.59
2023-06-08T16:42:04.500Z,20.62
2023-06-08T16:44:31.822Z,20.55
2023-06-08T16:46:59.011Z,20.52
2023-06-08T16:49:26.081Z,20.56
2023-06-08T16:51:54.837Z,20.68
2023-06-08T16:54:22.053Z,20.70
2023-06-08T16:56:49.029Z,20.62
2023-06-08T16:59:16.060Z,20.60
2023-06-08T17:01:43.270Z,20.48
2023-06-08T17:04:10.571Z,20.36
2023-06-08T17:06:38.115Z,20.27
2023-06-08T17:09:06.594Z,20.05
2023-06-08T17:11:33.576Z,19.96
2023-06-08T17:14:00.737Z,19.95
2023-06-08T17:16:28.204Z,19.98
2023-06-08T17:18:55.649Z,20.00
2023-06-08T17:21:22.600Z,20.01
2023-06-08T17:23:49.783Z,19.92
2023-06-08T17:26:18.244Z,19.86
2023-06-08T17:28:48.507Z,19.75
2023-06-08T17:31:15.892Z,19.55
2023-06-08T17:33:43.000Z,19.48
2023-06-08T17:36:11.710Z,19.41
2023-06-08T17:38:38.808Z,19.42
2023-06-08T17:41:05.961Z,19.41
2023-06-08T17:43:46.966Z,19.30
2023-06-08T17:46:14.537Z,19.06
2023-06-08T17:48:41.589Z,18.96
2023-06-08T17:51:09.100Z,18.95
2023-06-08T17:53:36.266Z,18.89
2023-06-08T17:56:03.440Z,18.76
2023-06-08T17:58:30.437Z,18.66
2023-06-08T18:01:00.612Z,18.60
2023-06-08T18:03:27.840Z,18.64
2023-06-08T18:05:55.055Z,18.72
2023-06-08T18:08:22.048Z,18.75
2023-06-08T18:10:48.996Z,18.69
2023-06-08T18:13:16.977Z,18.68
2023-06-08T18:15:43.879Z,18.70
2023-06-08T18:18:13.329Z,18.74
2023-06-08T18:20:40.413Z,18.73
2023-06-08T18:23:07.502Z,18.79
2023-06-08T18:25:34.465Z,18.86
2023-06-08T18:28:01.739Z,18.81
2023-06-08T18:30:29.786Z,18.70
2023-06-08T18:32:56.931Z,18.74
2023-06-08T18:35:25.363Z,18.84
2023-06-08T18:37:54.137Z,18.83
2023-06-08T18:40:21.483Z,18.81
2023-06-08T18:42:48.462Z,18.71
2023-06-08T18:45:16.024Z,18.66
2023-06-08T18:47:42.978Z,18.58
2023-06-08T18:50:13.824Z,18.47
2023-06-08T18:52:42.636Z,18.48
2023-06-08T18:55:10.444Z,18.46
2023-06-08T18:57:37.684Z,18.36
2023-06-08T19:00:06.617Z,18.41
2023-06-08T19:02:34.194Z,18.39
2023-06-08T19:05:05.637Z,18.42
2023-06-08T19:07:33.563Z,18.48
2023-06-08T19:10:05.162Z,18.50
2023-06-08T19:12:32.778Z,18.49
2023-06-08T19:14:59.742Z,18.47
2023-06-08T19:17:26.700Z,18.45
2023-06-08T19:19:53.736Z,18.44
2023-06-08T19:22:22.798Z,18.38
2023-06-08T19:24:49.796Z,18.39
2023-06-08T19:27:18.312Z,18.38
2023-06-08T19:29:45.390Z,18.39
2023-06-08T19:32:12.480Z,18.33
2023-06-08T19:34:39.688Z,18.30
2023-06-08T19:37:07.099Z,18.37
2023-06-08T19:39:34.067Z,18.44
2023-06-08T19:42:03.953Z,18.52
2023-06-08T19:44:32.708Z,18.54
2023-06-08T19:47:02.997Z,18.43
2023-06-08T19:49:32.034Z,18.34
2023-06-08T19:51:59.327Z,18.34
2023-06-08T19:54:26.548Z,18.36
2023-06-08T19:56:53.749Z,18.30
2023-06-08T19:59:20.813Z,18.17
2023-06-08T20:01:50.674Z,18.05
2023-06-08T20:04:17.843Z,18.03
2023-06-08T20:06:49.774Z,17.97
2023-06-08T20:09:26.090Z,17.95
2023-06-08T20:11:54.632Z,17.89
2023-06-08T20:14:21.591Z,17.88
2023-06-08T20:16:52.906Z,17.83
2023-06-08T20:19:25.467Z,17.78
2023-06-08T20:21:55.305Z,17.81
2023-06-08T20:24:22.571Z,17.88
2023-06-08T20:26:49.613Z,17.87
2023-06-08T20:29:16.669Z,17.78
2023-06-08T20:31:43.899Z,17.68
2023-06-08T20:34:12.555Z,17.63
2023-06-08T20:36:39.616Z,17.61
2023-06-08T20:39:09.348Z,17.58
2023-06-08T20:41:36.891Z,17.59
2023-06-08T20:44:05.824Z,17.58
2023-06-08T20:46:34.423Z,17.56
2023-06-08T20:49:03.967Z,17.57
2023-06-08T20:51:32.689Z,17.64
2023-06-08T20:53:59.676Z,17.62
2023-06-08T20:56:27.278Z,17.60
2023-06-08T20:58:54.566Z,17.60
2023-06-08T21:01:21.860Z,17.59
2023-06-08T21:03:49.589Z,17.75
2023-06-08T21:06:17.252Z,18.04
2023-06-08T21:08:45.741Z,18.23
2023-06-08T21:11:12.866Z,18.38
2023-06-08T21:13:39.782Z,18.51
2023-06-08T21:16:06.857Z,18.60
2023-06-08T21:18:35.139Z,18.74
2023-06-08T21:21:02.115Z,18.85
2023-06-08T21:23:31.581Z,18.90
2023-06-08T21:26:00.116Z,18.94
2023-06-08T21:28:27.174Z,18.97
2023-06-08T21:30:54.664Z,18.99
2023-06-08T21:33:21.747Z,18.97
2023-06-08T21:36:01.843Z,18.91
2023-06-08T21:38:36.165Z,18.85
2023-06-08T21:41:04.543Z,18.79
2023-06-08T21:43:31.605Z,18.77
2023-06-08T21:45:58.652Z,18.77
2023-06-08T21:48:25.851Z,18.78
2023-06-08T21:50:52.984Z,18.79
2023-06-08T21:53:20.063Z,18.87
2023-06-08T21:55:47.082Z,18.90
2023-06-08T21:58:15.695Z,18.96
2023-06-08T22:00:42.871Z,19.04
2023-06-08T22:03:11.684Z,19.13
2023-06-08T22:05:38.686Z,19.13
2023-06-08T22:08:05.640Z,19.03
2023-06-08T22:10:32.729Z,19.03
2023-06-08T22:12:59.912Z,19.01
2023-06-08T22:15:28.301Z,18.96
2023-06-08T22:17:55.964Z,18.93
2023-06-08T22:20:23.791Z,18.60
2023-06-08T22:22:50.868Z,18.49
2023-06-08T22:25:17.979Z,18.43
2023-06-08T22:27:46.240Z,18.48
2023-06-08T22:30:14.369Z,18.52
2023-06-08T22:32:42.923Z,18.44
2023-06-08T22:35:10.426Z,18.35
2023-06-08T22:37:37.558Z,18.33
2023-06-08T22:40:06.041Z,18.32
2023-06-08T22:42:33.126Z,18.23
2023-06-08T22:45:00.222Z,18.17
2023-06-08T22:47:31.496Z,18.22
2023-06-08T22:50:01.431Z,18.18
2023-06-08T22:52:32.726Z,18.10
2023-06-08T22:55:00.461Z,18.02
2023-06-08T22:57:27.427Z,17.97
2023-06-08T22:59:54.409Z,17.94
2023-06-08T23:02:21.653Z,18.02
2023-06-08T23:04:48.991Z,18.02
2023-06-08T23:07:17.926Z,17.93
2023-06-08T23:09:49.661Z,17.96
2023-06-08T23:12:18.670Z,18.02
2023-06-08T23:14:51.687Z,17.94
2023-06-08T23:17:19.347Z,17.83
2023-06-08T23:19:49.566Z,17.90
2023-06-08T23:22:21.262Z,17.87
2023-06-08T23:24:48.859Z,17.90
2023-06-08T23:27:16.248Z,17.90
2023-06-08T23:29:49.699Z,17.78
2023-06-08T23:32:17.247Z,17.59
2023-06-08T23:34:44.436Z,17.49
2023-06-08T23:37:11.888Z,17.52
2023-06-08T23:39:40.245Z,17.44
2023-06-08T23:42:09.355Z,17.36
2023-06-08T23:44:36.368Z,17.37
2023-06-08T23:47:04.131Z,17.43
2023-06-08T23:49:31.152Z,17.32
2023-06-08T23:51:58.217Z,17.24
2023-06-08T23:54:25.183Z,17.24
2023-06-08T23:56:53.597Z,17.18
2023-06-08T23:59:20.556Z,17.20
